createdAt,value
2023-03-18T00:01:11.606Z,6.49
2023-03-18T00:03:40.028Z,6.50
2023-03-18T00:06:18.519Z,6.55
2023-03-18T00:08:47.944Z,6.55
2023-03-18T00:11:18.779Z,6.49
2023-03-18T00:13:46.708Z,6.42
2023-03-18T00:16:15.263Z,6.42
2023-03-18T00:18:43.321Z,6.35
2023-03-18T00:21:11.157Z,6.35
2023-03-18T00:23:39.637Z,6.42
2023-03-18T00:26:09.085Z,6.38
2023-03-18T00:28:38.759Z,6.41
2023-03-18T00:31:13.770Z,6.33
2023-03-18T00:33:46.026Z,6.37
2023-03-18T00:36:15.192Z,6.31
2023-03-18T00:38:46.107Z,6.23
2023-03-18T00:41:16.268Z,6.30
2023-03-18T00:43:52.449Z,6.22
2023-03-18T00:46:27.528Z,6.21
2023-03-18T00:49:00.124Z,6.24
2023-03-18T00:51:32.397Z,6.28
2023-03-18T00:54:06.710Z,6.25
2023-03-18T00:56:37.674Z,6.12
2023-03-18T00:59:07.584Z,6.19
2023-03-18T01:01:36.734Z,6.14
2023-03-18T01:04:04.963Z,5.98
2023-03-18T01:06:35.896Z,6.06
2023-03-18T01:09:07.028Z,5.96
2023-03-18T01:11:34.982Z,6.05
2023-03-18T01:14:03.712Z,5.99
2023-03-18T01:16:31.166Z,6.02
2023-03-18T01:18:59.944Z,6.04
2023-03-18T01:21:27.989Z,6.07
2023-03-18T01:23:55.684Z,5.95
2023-03-18T01:26:23.812Z,6.01
2023-03-18T01:28:51.795Z,6.08
2023-03-18T01:31:19.677Z,6.05
2023-03-18T01:33:47.936Z,6.00
2023-03-18T01:36:15.698Z,6.00
2023-03-18T01:38:43.648Z,6.03
2023-03-18T01:41:12.579Z,6.00
2023-03-18T01:43:42.968Z,5.89
2023-03-18T01:46:39.063Z,5.91
2023-03-18T01:49:41.212Z,5.89
2023-03-18T01:52:21.640Z,5.88
2023-03-18T01:55:08.634Z,5.81
2023-03-18T01:57:37.495Z,5.83
2023-03-18T02:00:07.009Z,5.86
2023-03-18T02:02:34.262Z,5.83
2023-03-18T02:05:06.561Z,5.83
2023-03-18T02:07:36.319Z,5.82
2023-03-18T02:10:30.102Z,5.76
2023-03-18T02:13:10.490Z,5.72
2023-03-18T02:15:57.076Z,5.66
2023-03-18T02:18:40.933Z,5.65
2023-03-18T02:21:56.592Z,5.57
2023-03-18T02:25:03.995Z,5.43
2023-03-18T02:27:40.258Z,5.33
2023-03-18T02:30:19.100Z,5.23
2023-03-18T02:32:49.599Z,5.19
2023-03-18T02:35:17.246Z,5.14
2023-03-18T02:37:44.789Z,5.10
2023-03-18T02:40:31.490Z,5.04
2023-03-18T02:43:19.224Z,5.14
2023-03-18T02:46:15.463Z,5.03
2023-03-18T02:48:46.243Z,5.01
2023-03-18T02:51:17.052Z,4.87
2023-03-18T02:53:44.692Z,4.89
2023-03-18T02:56:12.317Z,4.82
2023-03-18T02:58:41.205Z,4.75
2023-03-18T03:01:09.976Z,4.80
2023-03-18T03:03:38.832Z,4.74
2023-03-18T03:06:07.718Z,4.74
2023-03-18T03:08:35.338Z,4.74
2023-03-18T03:11:03.035Z,4.72
2023-03-18T03:13:30.870Z,4.74
2023-03-18T03:15:58.154Z,4.73
2023-03-18T03:18:26.739Z,4.72
2023-03-18T03:20:54.177Z,4.80
2023-03-18T03:23:21.887Z,4.74
2023-03-18T03:25:49.557Z,4.73
2023-03-18T03:28:17.348Z,4.75
2023-03-18T03:30:45.997Z,4.73
2023-03-18T03:33:13.906Z,4.72
2023-03-18T03:35:42.177Z,4.66
2023-03-18T03:38:10.710Z,4.65
2023-03-18T03:40:39.049Z,4.65
2023-03-18T03:43:07.059Z,4.65
2023-03-18T03:45:34.681Z,4.64
2023-03-18T03:48:02.245Z,4.62
2023-03-18T03:50:29.712Z,4.64
2023-03-18T03:52:58.376Z,4.62
2023-03-18T03:55:25.933Z,4.57
2023-03-18T03:57:53.488Z,4.54
2023-03-18T04:00:24.235Z,4.53
2023-03-18T04:02:54.276Z,4.43
2023-03-18T04:05:24.681Z,4.40
2023-03-18T04:07:54.265Z,4.24
2023-03-18T04:10:22.852Z,4.37
2023-03-18T04:12:51.098Z,4.30
2023-03-18T04:15:21.983Z,4.29
2023-03-18T04:17:50.960Z,4.23
2023-03-18T04:20:18.997Z,4.06
2023-03-18T04:22:47.055Z,4.15
2023-03-18T04:25:15.095Z,4.06
2023-03-18T04:27:43.828Z,4.13
2023-03-18T04:30:12.738Z,4.14
2023-03-18T04:32:40.443Z,4.15
2023-03-18T04:35:09.318Z,4.13
2023-03-18T04:37:37.587Z,4.14
2023-03-18T04:40:06.593Z,4.14
2023-03-18T04:42:34.328Z,4.15
2023-03-18T04:45:02.082Z,4.16
2023-03-18T04:47:29.583Z,4.13
2023-03-18T04:49:56.820Z,4.15
2023-03-18T04:52:24.687Z,4.14
2023-03-18T04:54:52.710Z,4.15
2023-03-18T04:57:20.536Z,4.15
2023-03-18T04:59:47.972Z,4.20
2023-03-18T05:02:15.683Z,4.24
2023-03-18T05:04:44.044Z,4.26
2023-03-18T05:07:16.618Z,4.29
2023-03-18T05:09:44.000Z,4.35
2023-03-18T05:12:16.169Z,4.40
2023-03-18T05:14:45.092Z,4.44
2023-03-18T05:17:17.154Z,4.48
2023-03-18T05:19:47.624Z,4.50
2023-03-18T05:22:19.021Z,4.51
2023-03-18T05:24:46.980Z,4.54
2023-03-18T05:27:18.598Z,4.60
2023-03-18T05:29:46.439Z,4.65
2023-03-18T05:32:14.936Z,4.71
2023-03-18T05:34:42.911Z,4.72
2023-03-18T05:37:14.054Z,4.76
2023-03-18T05:39:44.842Z,4.82
2023-03-18T05:42:14.249Z,4.91
2023-03-18T05:44:42.272Z,4.95
2023-03-18T05:47:10.760Z,4.97
2023-03-18T05:49:38.071Z,5.07
2023-03-18T05:52:06.419Z,5.13
2023-03-18T05:54:34.030Z,5.19
2023-03-18T05:57:01.639Z,5.25
2023-03-18T05:59:30.265Z,5.31
2023-03-18T06:01:58.040Z,5.44
2023-03-18T06:04:27.198Z,5.49
2023-03-18T06:06:55.385Z,5.58
2023-03-18T06:09:23.394Z,5.65
2023-03-18T06:11:51.020Z,5.73
2023-03-18T06:14:19.601Z,5.87
2023-03-18T06:16:47.228Z,6.01
2023-03-18T06:19:14.573Z,6.12
2023-03-18T06:21:42.292Z,6.30
2023-03-18T06:24:09.756Z,6.37
2023-03-18T06:26:37.401Z,6.46
2023-03-18T06:29:05.364Z,6.58
2023-03-18T06:31:34.235Z,6.60
2023-03-18T06:34:01.753Z,6.79
2023-03-18T06:36:29.285Z,6.88
2023-03-18T06:38:56.819Z,7.02
2023-03-18T06:41:24.379Z,7.21
2023-03-18T06:43:52.208Z,7.10
2023-03-18T06:46:20.031Z,7.24
2023-03-18T06:48:47.463Z,7.30
2023-03-18T06:51:14.995Z,7.22
2023-03-18T06:53:42.243Z,7.33
2023-03-18T06:56:10.101Z,7.48
2023-03-18T06:58:37.873Z,7.33
2023-03-18T07:01:05.679Z,7.42
2023-03-18T07:03:33.065Z,7.19
2023-03-18T07:06:01.313Z,7.49
2023-03-18T07:08:29.333Z,7.47
2023-03-18T07:10:57.806Z,7.60
2023-03-18T07:13:25.348Z,7.64
2023-03-18T07:15:56.560Z,7.98
2023-03-18T07:18:24.664Z,8.11
2023-03-18T07:20:52.638Z,8.18
2023-03-18T07:23:20.756Z,8.48
2023-03-18T07:25:48.370Z,8.78
2023-03-18T07:28:15.930Z,9.08
2023-03-18T07:30:43.455Z,9.65
2023-03-18T07:33:10.775Z,11.03
2023-03-18T07:35:41.137Z,15.31
2023-03-18T07:38:10.018Z,18.01
2023-03-18T07:40:38.066Z,20.49
2023-03-18T07:43:06.865Z,22.47
2023-03-18T07:45:35.078Z,23.64
2023-03-18T07:48:02.476Z,23.78
2023-03-18T07:50:30.006Z,22.32
2023-03-18T07:52:57.345Z,22.87
2023-03-18T07:55:25.472Z,23.60
2023-03-18T07:57:52.838Z,23.73
2023-03-18T08:00:21.079Z,24.56
2023-03-18T08:02:48.385Z,25.86
2023-03-18T08:05:16.217Z,26.69
2023-03-18T08:07:43.672Z,26.92
2023-03-18T08:10:12.648Z,26.51
2023-03-18T08:12:52.168Z,26.34
2023-03-18T08:15:22.364Z,27.94
2023-03-18T08:17:51.251Z,26.95
2023-03-18T08:20:20.274Z,28.12
2023-03-18T08:22:48.516Z,25.91
2023-03-18T08:25:17.256Z,28.72
2023-03-18T08:27:44.591Z,29.68
2023-03-18T08:30:13.821Z,27.82
2023-03-18T08:32:42.172Z,28.36
2023-03-18T08:35:11.742Z,28.54
2023-03-18T08:37:39.603Z,27.60
2023-03-18T08:40:09.955Z,27.39
2023-03-18T08:42:37.388Z,28.43
2023-03-18T08:45:05.622Z,28.32
2023-03-18T08:47:32.913Z,30.23
2023-03-18T08:50:00.499Z,27.66
2023-03-18T08:52:27.869Z,31.00
2023-03-18T08:54:55.532Z,32.29
2023-03-18T08:57:22.929Z,31.87
2023-03-18T08:59:51.191Z,31.60
2023-03-18T09:02:18.542Z,34.19
2023-03-18T09:04:48.318Z,31.55
2023-03-18T09:07:17.955Z,29.17
2023-03-18T09:09:46.753Z,31.59
2023-03-18T09:12:15.029Z,28.87
2023-03-18T09:14:44.101Z,31.53
2023-03-18T09:17:11.702Z,33.62
2023-03-18T09:19:39.688Z,34.35
2023-03-18T09:22:08.481Z,34.34
2023-03-18T09:24:36.293Z,30.94
2023-03-18T09:27:03.752Z,33.78
2023-03-18T09:29:32.072Z,31.64
2023-03-18T09:32:00.705Z,35.29
2023-03-18T09:34:28.412Z,36.23
2023-03-18T09:36:55.692Z,36.33
2023-03-18T09:39:23.336Z,32.89
2023-03-18T09:42:36.395Z,35.84
2023-03-18T09:45:39.056Z,38.29
2023-03-18T09:48:46.015Z,39.48
2023-03-18T09:51:53.927Z,41.28
2023-03-18T09:54:59.988Z,40.18
2023-03-18T09:57:36.950Z,40.06
2023-03-18T10:00:21.130Z,40.74
2023-03-18T10:02:59.138Z,41.65
2023-03-18T10:05:36.161Z,42.30
2023-03-18T10:08:52.985Z,41.64
2023-03-18T10:11:33.882Z,43.46
2023-03-18T10:14:27.603Z,43.74
2023-03-18T10:17:26.084Z,44.81
2023-03-18T10:19:59.486Z,46.29
2023-03-18T10:23:03.735Z,47.66
2023-03-18T10:25:51.683Z,45.09
2023-03-18T10:28:59.460Z,46.81
2023-03-18T10:31:57.308Z,46.88
2023-03-18T10:34:40.457Z,45.31
2023-03-18T10:37:41.205Z,45.83
2023-03-18T10:40:16.003Z,43.87
2023-03-18T10:42:45.638Z,42.20
2023-03-18T10:45:24.680Z,41.94
2023-03-18T10:48:12.825Z,38.81
2023-03-18T10:50:57.053Z,37.18
2023-03-18T10:53:51.844Z,37.34
2023-03-18T10:56:19.517Z,35.76
2023-03-18T10:58:47.149Z,35.20
2023-03-18T11:01:21.188Z,33.66
2023-03-18T11:03:54.691Z,33.22
2023-03-18T11:06:50.256Z,32.93
2023-03-18T11:09:22.491Z,30.86
2023-03-18T11:11:57.205Z,30.51
2023-03-18T11:14:31.761Z,29.62
2023-03-18T11:17:22.333Z,29.18
2023-03-18T11:20:08.316Z,29.03
2023-03-18T11:22:38.128Z,29.51
2023-03-18T11:25:14.048Z,30.21
2023-03-18T11:27:46.064Z,30.78
2023-03-18T11:30:34.994Z,31.50
2023-03-18T11:33:14.298Z,30.72
2023-03-18T11:35:55.200Z,31.30
2023-03-18T11:38:32.768Z,31.47
2023-03-18T11:41:26.080Z,30.65
2023-03-18T11:44:03.411Z,31.78
2023-03-18T11:46:46.086Z,31.78
2023-03-18T11:49:22.987Z,32.27
2023-03-18T11:51:59.450Z,31.73
2023-03-18T11:55:09.622Z,31.25
2023-03-18T11:58:08.925Z,29.94
2023-03-18T12:00:50.323Z,29.29
2023-03-18T12:04:23.491Z,29.40
2023-03-18T12:07:23.778Z,29.72
2023-03-18T12:09:57.073Z,29.57
2023-03-18T12:12:48.465Z,30.21
2023-03-18T12:15:40.634Z,30.24
2023-03-18T12:19:01.710Z,31.66
2023-03-18T12:21:56.363Z,32.35
2023-03-18T12:25:14.322Z,33.18
2023-03-18T12:28:22.045Z,33.62
2023-03-18T12:31:02.559Z,34.33
2023-03-18T12:34:01.575Z,33.89
2023-03-18T12:37:12.045Z,32.72
2023-03-18T12:40:08.023Z,32.48
2023-03-18T12:42:51.962Z,32.50
2023-03-18T12:45:23.843Z,32.18
2023-03-18T12:48:09.408Z,32.40
2023-03-18T12:50:54.727Z,31.74
2023-03-18T12:53:46.416Z,32.52
2023-03-18T12:56:21.629Z,31.85
2023-03-18T12:59:22.329Z,31.77
2023-03-18T13:02:18.644Z,31.46
2023-03-18T13:05:00.728Z,31.63
2023-03-18T13:07:44.354Z,31.80
2023-03-18T13:10:23.665Z,31.72
2023-03-18T13:13:01.024Z,30.89
2023-03-18T13:15:55.293Z,30.20
2023-03-18T13:18:39.855Z,31.07
2023-03-18T13:21:12.652Z,30.84
2023-03-18T13:24:24.108Z,29.93
2023-03-18T13:27:19.776Z,29.67
2023-03-18T13:30:30.078Z,28.93
2023-03-18T13:33:42.881Z,28.57
2023-03-18T13:36:43.761Z,27.89
2023-03-18T13:39:38.226Z,27.65
2023-03-18T13:42:11.558Z,27.49
2023-03-18T13:44:55.704Z,27.47
2023-03-18T13:47:28.689Z,27.37
2023-03-18T13:50:22.399Z,28.14
2023-03-18T13:52:55.250Z,28.65
2023-03-18T13:55:45.087Z,29.22
2023-03-18T13:58:23.605Z,29.06
2023-03-18T14:00:57.147Z,29.38
2023-03-18T14:03:43.182Z,29.03
2023-03-18T14:06:15.667Z,29.00
2023-03-18T14:08:43.305Z,28.97
2023-03-18T14:11:28.782Z,29.06
2023-03-18T14:14:02.251Z,28.45
2023-03-18T14:16:36.302Z,28.70
2023-03-18T14:19:20.892Z,28.04
2023-03-18T14:21:55.155Z,27.51
2023-03-18T14:24:26.759Z,27.90
2023-03-18T14:27:04.444Z,27.47
2023-03-18T14:29:47.318Z,27.82
2023-03-18T14:32:35.538Z,28.02
2023-03-18T14:35:18.561Z,28.29
2023-03-18T14:38:24.974Z,28.25
2023-03-18T14:40:57.562Z,27.48
2023-03-18T14:43:37.464Z,27.07
2023-03-18T14:46:17.741Z,26.29
2023-03-18T14:48:46.199Z,26.01
2023-03-18T14:51:21.179Z,25.26
2023-03-18T14:53:59.837Z,24.47
2023-03-18T14:56:38.578Z,24.12
2023-03-18T14:59:05.978Z,23.56
2023-03-18T15:01:40.540Z,23.37
2023-03-18T15:04:18.106Z,22.98
2023-03-18T15:06:46.481Z,22.72
2023-03-18T15:09:27.246Z,22.24
2023-03-18T15:11:55.249Z,22.14
2023-03-18T15:14:32.650Z,21.85
2023-03-18T15:17:05.130Z,21.57
2023-03-18T15:19:32.808Z,21.35
2023-03-18T15:22:07.157Z,20.95
2023-03-18T15:24:35.756Z,20.93
2023-03-18T15:27:14.784Z,20.82
2023-03-18T15:29:57.748Z,20.55
2023-03-18T15:32:27.335Z,20.63
2023-03-18T15:35:11.174Z,20.62
2023-03-18T15:37:45.386Z,20.33
2023-03-18T15:40:26.634Z,20.29
2023-03-18T15:43:12.020Z,19.85
2023-03-18T15:45:48.108Z,19.64
2023-03-18T15:48:40.798Z,19.28
2023-03-18T15:51:48.152Z,19.29
2023-03-18T15:54:28.106Z,18.99
2023-03-18T15:56:58.901Z,18.76
2023-03-18T15:59:31.246Z,18.73
2023-03-18T16:02:00.572Z,18.46
2023-03-18T16:04:35.445Z,18.44
2023-03-18T16:07:03.974Z,18.41
2023-03-18T16:09:34.459Z,18.36
2023-03-18T16:12:19.308Z,18.25
2023-03-18T16:14:51.054Z,18.18
2023-03-18T16:17:21.818Z,18.02
2023-03-18T16:19:55.806Z,17.96
2023-03-18T16:22:23.385Z,17.92
2023-03-18T16:24:51.126Z,17.85
2023-03-18T16:27:38.481Z,17.73
2023-03-18T16:30:16.410Z,17.67
2023-03-18T16:32:44.888Z,17.54
2023-03-18T16:35:18.067Z,17.46
2023-03-18T16:37:48.051Z,17.39
2023-03-18T16:40:22.168Z,17.29
2023-03-18T16:42:51.176Z,17.21
2023-03-18T16:45:25.388Z,17.14
2023-03-18T16:47:58.836Z,17.08
2023-03-18T16:50:34.993Z,17.04
2023-03-18T16:53:03.126Z,17.00
2023-03-18T16:55:31.472Z,16.94
2023-03-18T16:58:00.041Z,16.87
2023-03-18T17:00:32.955Z,16.81
2023-03-18T17:03:01.772Z,16.76
2023-03-18T17:05:29.629Z,16.70
2023-03-18T17:07:56.998Z,16.59
2023-03-18T17:10:27.170Z,16.53
2023-03-18T17:13:05.951Z,16.48
2023-03-18T17:15:38.289Z,16.43
2023-03-18T17:18:12.059Z,16.37
2023-03-18T17:20:41.445Z,16.29
2023-03-18T17:23:32.669Z,16.18
2023-03-18T17:26:03.038Z,16.10
2023-03-18T17:28:45.762Z,15.89
2023-03-18T17:31:14.159Z,15.78
2023-03-18T17:33:41.998Z,15.67
2023-03-18T17:36:10.319Z,15.58
2023-03-18T17:38:37.676Z,15.45
2023-03-18T17:41:14.828Z,15.29
2023-03-18T17:43:42.254Z,15.18
2023-03-18T17:46:09.881Z,15.11
2023-03-18T17:48:39.685Z,14.96
2023-03-18T17:51:27.540Z,14.91
2023-03-18T17:54:00.131Z,14.93
2023-03-18T17:56:28.884Z,14.91
2023-03-18T17:58:56.237Z,14.92
2023-03-18T18:01:27.437Z,14.89
2023-03-18T18:03:58.200Z,14.83
2023-03-18T18:06:32.109Z,14.77
2023-03-18T18:09:01.162Z,14.73
2023-03-18T18:11:38.027Z,14.68
2023-03-18T18:14:26.123Z,14.61
2023-03-18T18:16:59.601Z,14.56
2023-03-18T18:19:27.160Z,14.47
2023-03-18T18:21:54.968Z,14.40
2023-03-18T18:24:30.860Z,14.33
2023-03-18T18:26:58.471Z,14.30
2023-03-18T18:29:29.611Z,14.27
2023-03-18T18:31:57.486Z,14.23
2023-03-18T18:34:24.980Z,14.18
2023-03-18T18:36:52.886Z,14.15
2023-03-18T18:39:21.121Z,14.08
2023-03-18T18:41:48.931Z,14.01
2023-03-18T18:44:16.297Z,13.96
2023-03-18T18:46:43.869Z,13.89
2023-03-18T18:49:23.784Z,13.81
2023-03-18T18:51:54.834Z,13.71
2023-03-18T18:54:24.167Z,13.67
2023-03-18T18:56:53.112Z,13.61
2023-03-18T18:59:30.848Z,13.56
2023-03-18T19:02:00.754Z,13.44
2023-03-18T19:04:29.258Z,13.42
2023-03-18T19:06:56.921Z,13.34
2023-03-18T19:09:26.295Z,13.35
2023-03-18T19:11:56.435Z,13.30
2023-03-18T19:14:29.472Z,13.25
2023-03-18T19:16:59.857Z,13.20
2023-03-18T19:19:34.983Z,13.13
2023-03-18T19:22:03.664Z,13.10
2023-03-18T19:24:39.338Z,13.05
2023-03-18T19:27:20.112Z,13.00
2023-03-18T19:29:47.831Z,13.00
2023-03-18T19:32:21.204Z,12.94
2023-03-18T19:34:51.723Z,12.90
2023-03-18T19:37:24.058Z,12.90
2023-03-18T19:39:51.946Z,12.85
2023-03-18T19:42:20.120Z,12.83
2023-03-18T19:44:48.739Z,12.81
2023-03-18T19:47:29.783Z,12.81
2023-03-18T19:49:57.159Z,12.84
2023-03-18T19:52:27.739Z,12.83
2023-03-18T19:54:55.873Z,12.82
2023-03-18T19:57:31.888Z,12.79
2023-03-18T20:00:01.326Z,12.79
2023-03-18T20:02:33.998Z,12.80
2023-03-18T20:05:15.065Z,12.77
2023-03-18T20:07:42.754Z,12.71
2023-03-18T20:10:14.746Z,12.70
2023-03-18T20:12:49.323Z,12.64
2023-03-18T20:15:25.611Z,12.63
2023-03-18T20:17:54.085Z,12.62
2023-03-18T20:20:44.640Z,12.57
2023-03-18T20:23:22.374Z,12.56
2023-03-18T20:25:51.831Z,12.53
2023-03-18T20:28:23.767Z,12.49
2023-03-18T20:30:54.104Z,12.41
2023-03-18T20:33:23.002Z,12.36
2023-03-18T20:35:53.932Z,12.32
2023-03-18T20:38:37.526Z,12.25
2023-03-18T20:41:07.232Z,12.22
2023-03-18T20:43:35.031Z,12.18
2023-03-18T20:46:02.584Z,12.15
2023-03-18T20:48:30.464Z,12.08
2023-03-18T20:50:58.433Z,12.02
2023-03-18T20:53:29.036Z,11.99
2023-03-18T20:55:56.869Z,11.96
2023-03-18T20:58:28.243Z,11.92
2023-03-18T21:00:56.114Z,11.86
2023-03-18T21:03:33.572Z,11.80
2023-03-18T21:06:03.979Z,11.70
2023-03-18T21:08:32.105Z,11.66
2023-03-18T21:11:02.244Z,11.64
2023-03-18T21:13:39.020Z,11.61
2023-03-18T21:16:13.942Z,11.58
2023-03-18T21:18:47.759Z,11.48
2023-03-18T21:21:24.896Z,11.42
2023-03-18T21:23:54.514Z,11.38
2023-03-18T21:26:23.834Z,11.25
2023-03-18T21:28:52.603Z,11.27
2023-03-18T21:31:26.080Z,11.28
2023-03-18T21:33:55.330Z,11.18
2023-03-18T21:36:22.617Z,10.98
2023-03-18T21:38:50.969Z,10.75
2023-03-18T21:41:36.806Z,10.43
2023-03-18T21:44:04.685Z,10.27
2023-03-18T21:46:32.220Z,10.22
2023-03-18T21:49:00.126Z,10.10
2023-03-18T21:51:39.624Z,10.16
2023-03-18T21:54:18.270Z,10.02
2023-03-18T21:56:45.601Z,9.94
2023-03-18T21:59:13.297Z,9.87
2023-03-18T22:01:40.613Z,9.80
2023-03-18T22:04:08.558Z,9.74
2023-03-18T22:06:35.851Z,9.51
2023-03-18T22:09:03.732Z,9.51
2023-03-18T22:11:31.062Z,9.40
2023-03-18T22:13:58.693Z,9.29
2023-03-18T22:16:26.125Z,9.29
2023-03-18T22:18:53.787Z,9.21
2023-03-18T22:21:26.298Z,9.17
2023-03-18T22:23:54.447Z,9.26
2023-03-18T22:26:22.231Z,9.19
2023-03-18T22:28:50.772Z,9.18
2023-03-18T22:31:27.086Z,9.17
2023-03-18T22:33:55.355Z,9.18
2023-03-18T22:36:23.892Z,9.28
2023-03-18T22:38:51.578Z,9.26
2023-03-18T22:41:31.234Z,9.24
2023-03-18T22:44:00.220Z,9.18
2023-03-18T22:46:28.592Z,9.11
2023-03-18T22:48:56.958Z,9.12
2023-03-18T22:51:29.729Z,9.02
2023-03-18T22:53:57.547Z,8.96
2023-03-18T22:56:24.908Z,9.04
2023-03-18T22:58:52.666Z,8.99
2023-03-18T23:01:26.717Z,8.89
2023-03-18T23:03:54.364Z,8.96
2023-03-18T23:06:27.158Z,8.93
2023-03-18T23:08:54.858Z,9.07
2023-03-18T23:11:22.100Z,9.08
2023-03-18T23:13:52.210Z,9.06
2023-03-18T23:16:23.754Z,8.98
2023-03-18T23:18:52.297Z,9.13
2023-03-18T23:21:23.687Z,8.92
2023-03-18T23:23:52.554Z,8.88
2023-03-18T23:26:20.570Z,8.90
2023-03-18T23:28:49.141Z,8.92
2023-03-18T23:31:16.991Z,8.83
2023-03-18T23:33:45.178Z,8.67
2023-03-18T23:36:13.119Z,8.74
2023-03-18T23:38:41.125Z,8.86
2023-03-18T23:41:08.573Z,8.64
2023-03-18T23:43:36.863Z,8.73
2023-03-18T23:46:04.372Z,8.61
2023-03-18T23:48:32.021Z,8.57
2023-03-18T23:50:59.359Z,8.44
2023-03-18T23:53:27.303Z,8.30
2023-03-18T23:55:54.541Z,8.41
2023-03-18T23:58:22.326Z,8.32
